Time;durP1;ratioP1;P1;durP2;ratioP2;P2;SDS_P1;SDS_P2;PMS_P1;PMS_P2;Temp;Humidity;BMP_temperature;BMP_pressure;BME280_temperature;BME280_humidity;BME280_pressure;Samples;Min_cycle;Max_cycle;Signal;HPM_P1;HPM_P2
2022/04/13 00:01:05;;;;;;;;;;;;;;;;;;5055262;28;19909;-87
2022/04/13 00:03:30;;;;;;;;;;;;;;;;;;5055341;28;19970;-87
2022/04/13 00:05:55;;;;;;;;;;;;;;;;;;5056048;28;19943;-87
2022/04/13 00:08:21;;;;;;;;;;;;;;;;;;5055454;28;19948;-87
2022/04/13 00:10:46;;;;;;;;;;;;;;;;;;5055176;28;19912;-87
2022/04/13 00:13:11;;;;;;;;;;;;;;;;;;5056004;28;20402;-87
2022/04/13 00:15:37;;;;;;;;;;;;;;;;;;5056343;28;19912;-87
2022/04/13 00:18:02;;;;;;;;;;;;;;;;;;5054947;28;19916;-87
2022/04/13 00:20:27;;;;;;;;;;;;;;;;;;5057343;28;19916;-87
2022/04/13 00:22:52;;;;;;;;;;;;;;;;;;5068769;28;19913;-87
2022/04/13 00:25:18;;;;;;;;;;;;;;;;;;5054801;28;19909;-87
2022/04/13 00:27:43;;;;;;;;;;;;;;;;;;5054903;28;19908;-86
2022/04/13 00:30:08;;;;;;;;;;;;;;;;;;5054777;28;19919;-87
2022/04/13 00:32:33;;;;;;;;;;;;;;;;;;5054674;28;19912;-87
2022/04/13 00:34:59;;;;;;;;;;;;;;;;;;5054948;28;19916;-87
2022/04/13 00:37:25;;;;;;;;;;;;;;;;;;5072964;28;19917;-86
2022/04/13 00:39:50;;;;;;;;;;;;;;;;;;5074702;28;20049;-87
2022/04/13 00:42:16;;;;;;;;;;;;;;;;;;5074610;28;20269;-87
2022/04/13 00:44:42;;;;;;;;;;;;;;;;;;5075707;28;19916;-87
2022/04/13 00:47:07;;;;;;;;;;;;;;;;;;5074350;28;19916;-87
2022/04/13 00:49:32;;;;;;;;;;;;;;;;;;5074278;28;19909;-87
2022/04/13 00:51:57;;;;;;;;;;;;;;;;;;5073846;28;19912;-87
2022/04/13 00:54:22;;;;;;;;;;;;;;;;;;5075703;28;19919;-87
2022/04/13 00:56:47;;;;;;;;;;;;;;;;;;5075739;28;19991;-87
2022/04/13 00:59:13;;;;;;;;;;;;;;;;;;5075586;28;19912;-87
2022/04/13 01:01:38;;;;;;;;;;;;;;;;;;5074312;28;19909;-87
2022/04/13 01:04:03;;;;;;;;;;;;;;;;;;5074288;28;19923;-87
2022/04/13 01:06:28;;;;;;;;;;;;;;;;;;5073515;28;20014;-87
2022/04/13 01:08:53;;;;;;;;;;;;;;;;;;5075235;28;20373;-87
2022/04/13 01:11:18;;;;;;;;;;;;;;;;;;5075376;28;19908;-87
2022/04/13 01:13:43;;;;;;;;;;;;;;;;;;5073931;28;19912;-87
2022/04/13 01:16:08;;;;;;;;;;;;;;;;;;5073768;28;20382;-87
2022/04/13 01:18:34;;;;;;;;;;;;;;;;;;5075101;28;19944;-87
2022/04/13 01:21:00;;;;;;;;;;;;;;;;;;5069707;28;19909;-87
2022/04/13 01:23:25;;;;;;;;;;;;;;;;;;5053757;28;19920;-87
2022/04/13 01:25:50;;;;;;;;;;;;;;;;;;5071358;28;19909;-87
2022/04/13 01:28:16;;;;;;;;;;;;;;;;;;5073927;28;19967;-86
2022/04/13 01:30:41;;;;;;;;;;;;;;;;;;5074957;28;19946;-87
2022/04/13 01:33:06;;;;;;;;;;;;;;;;;;5074818;28;19951;-87
2022/04/13 01:35:31;;;;;;;;;;;;;;;;;;5072748;28;19939;-87
2022/04/13 01:37:56;;;;;;;;;;;;;;;;;;5073531;28;19999;-86
2022/04/13 01:40:21;;;;;;;;;;;;;;;;;;5074911;28;19908;-87
2022/04/13 01:42:48;;;;;;;;;;;;;;;;;;5074655;28;19915;-87
2022/04/13 01:45:19;;;;;;;;;;;;;;;;;;5074644;28;19915;-87
2022/04/13 01:47:44;;;;;;;;;;;;;;;;;;5073248;28;19959;-87
2022/04/13 01:50:09;;;;;;;;;;;;;;;;;;5073170;28;19913;-86
2022/04/13 01:52:35;;;;;;;;;;;;;;;;;;5073592;28;19916;-87
2022/04/13 01:55:00;;;;;;;;;;;;;;;;;;5069249;28;19928;-87
2022/04/13 01:57:25;;;;;;;;;;;;;;;;;;5053233;28;19913;-87
2022/04/13 01:59:52;;;;;;;;;;;;;;;;;;5052018;28;20432;-87
2022/04/13 02:02:17;;;;;;;;;;;;;;;;;;5053106;28;20487;-86
2022/04/13 02:04:42;;;;;;;;;;;;;;;;;;5053109;28;19955;-86
2022/04/13 02:07:07;;;;;;;;;;;;;;;;;;5063174;28;20383;-87
2022/04/13 02:09:32;;;;;;;;;;;;;;;;;;5086109;28;19913;-87
2022/04/13 02:11:57;;;;;;;;;;;;;;;;;;5054327;28;19928;-87
2022/04/13 02:14:22;;;;;;;;;;;;;;;;;;5086326;28;20288;-87
2022/04/13 02:16:48;;;;;;;;;;;;;;;;;;5054150;28;19913;-87
2022/04/13 02:19:13;;;;;;;;;;;;;;;;;;5086296;28;19908;-86
2022/04/13 02:21:39;;;;;;;;;;;;;;;;;;5086119;28;20031;-87
2022/04/13 02:24:04;;;;;;;;;;;;;;;;;;5054284;28;19936;-87
2022/04/13 02:26:29;;;;;;;;;;;;;;;;;;5052670;28;19917;-86
2022/04/13 02:28:54;;;;;;;;;;;;;;;;;;5052599;28;19909;-87
2022/04/13 02:31:19;;;;;;;;;;;;;;;;;;5053867;28;19909;-87
2022/04/13 02:33:44;;;;;;;;;;;;;;;;;;5052609;28;19920;-87
2022/04/13 02:36:09;;;;;;;;;;;;;;;;;;5058566;28;20367;-87
2022/04/13 02:38:35;;;;;;;;;;;;;;;;;;5072527;28;19914;-87
2022/04/13 02:41:00;;;;;;;;;;;;;;;;;;5072464;28;19908;-87
2022/04/13 02:43:26;;;;;;;;;;;;;;;;;;5072506;28;20025;-87
2022/04/13 02:45:51;;;;;;;;;;;;;;;;;;5068247;28;19942;-86
2022/04/13 02:48:16;;;;;;;;;;;;;;;;;;5053595;28;19995;-87
2022/04/13 02:50:41;;;;;;;;;;;;;;;;;;5053847;28;20010;-87
2022/04/13 02:53:06;;;;;;;;;;;;;;;;;;5072319;28;20007;-87
2022/04/13 02:55:31;;;;;;;;;;;;;;;;;;5072362;28;20329;-87
2022/04/13 02:57:57;;;;;;;;;;;;;;;;;;5069079;28;19915;-87
2022/04/13 03:00:22;;;;;;;;;;;;;;;;;;5055524;28;19959;-87
2022/04/13 03:02:47;;;;;;;;;;;;;;;;;;5085636;28;20388;-87
2022/04/13 03:05:12;;;;;;;;;;;;;;;;;;5085864;28;19948;-86
2022/04/13 03:07:37;;;;;;;;;;;;;;;;;;5085698;28;19916;-87
2022/04/13 03:10:02;;;;;;;;;;;;;;;;;;5058732;28;19920;-87
2022/04/13 03:12:27;;;;;;;;;;;;;;;;;;5075375;28;19924;-87
2022/04/13 03:14:52;;;;;;;;;;;;;;;;;;5076251;28;19908;-87
2022/04/13 03:17:18;;;;;;;;;;;;;;;;;;5077475;28;20349;-87
2022/04/13 03:19:43;;;;;;;;;;;;;;;;;;5076196;28;19916;-86
2022/04/13 03:22:08;;;;;;;;;;;;;;;;;;5072183;28;19916;-87
2022/04/13 03:24:34;;;;;;;;;;;;;;;;;;5056239;28;19920;-87
2022/04/13 03:26:59;;;;;;;;;;;;;;;;;;5056182;28;19919;-87
2022/04/13 03:29:24;;;;;;;;;;;;;;;;;;5060338;28;19913;-86
2022/04/13 03:31:49;;;;;;;;;;;;;;;;;;5077114;28;19913;-87
2022/04/13 03:34:20;;;;;;;;;;;;;;;;;;5075793;28;20264;-87
2022/04/13 03:36:45;;;;;;;;;;;;;;;;;;5075800;28;19915;-87
2022/04/13 03:39:10;;;;;;;;;;;;;;;;;;5071991;28;19913;-86
2022/04/13 03:41:35;;;;;;;;;;;;;;;;;;5055863;28;19955;-87
2022/04/13 03:44:00;;;;;;;;;;;;;;;;;;5057069;28;19978;-87
2022/04/13 03:46:25;;;;;;;;;;;;;;;;;;5056918;28;20447;-87
2022/04/13 03:48:50;;;;;;;;;;;;;;;;;;5056841;28;19917;-87
2022/04/13 03:51:15;;;;;;;;;;;;;;;;;;5056829;28;19909;-87
2022/04/13 03:53:40;;;;;;;;;;;;;;;;;;5055697;28;19912;-87
2022/04/13 03:56:06;;;;;;;;;;;;;;;;;;5066366;28;19916;-87
2022/04/13 03:58:32;;;;;;;;;;;;;;;;;;5075358;28;19920;-87
2022/04/13 04:00:57;;;;;;;;;;;;;;;;;;5075227;28;19995;-87
2022/04/13 04:03:22;;;;;;;;;;;;;;;;;;5075441;28;19956;-87
2022/04/13 04:05:47;;;;;;;;;;;;;;;;;;5075253;28;19951;-87
2022/04/13 04:08:12;;;;;;;;;;;;;;;;;;5075299;28;20011;-87
2022/04/13 04:10:37;;;;;;;;;;;;;;;;;;5075233;28;20341;-87
2022/04/13 04:13:02;;;;;;;;;;;;;;;;;;5066284;28;20419;-87
2022/04/13 04:15:28;;;;;;;;;;;;;;;;;;5055240;28;20403;-86
2022/04/13 04:17:53;;;;;;;;;;;;;;;;;;5056433;28;19999;-87
2022/04/13 04:20:18;;;;;;;;;;;;;;;;;;5055078;28;19909;-87
2022/04/13 04:22:43;;;;;;;;;;;;;;;;;;5055369;28;20069;-87
2022/04/13 04:25:08;;;;;;;;;;;;;;;;;;5054935;28;20379;-87
2022/04/13 04:27:33;;;;;;;;;;;;;;;;;;5055087;28;19952;-87
2022/04/13 04:29:58;;;;;;;;;;;;;;;;;;5062098;28;19916;-87
2022/04/13 04:32:23;;;;;;;;;;;;;;;;;;5074855;28;19913;-87
2022/04/13 04:34:49;;;;;;;;;;;;;;;;;;5075001;28;19913;-86
2022/04/13 04:37:14;;;;;;;;;;;;;;;;;;5074761;28;20318;-87
2022/04/13 04:39:39;;;;;;;;;;;;;;;;;;5074761;28;19922;-86
2022/04/13 04:42:05;;;;;;;;;;;;;;;;;;5070552;28;20337;-87
2022/04/13 04:44:30;;;;;;;;;;;;;;;;;;5054585;28;20007;-86
2022/04/13 04:46:55;;;;;;;;;;;;;;;;;;5054440;28;19974;-87
2022/04/13 04:49:20;;;;;;;;;;;;;;;;;;5054517;28;19944;-87
2022/04/13 04:51:45;;;;;;;;;;;;;;;;;;5055711;28;19974;-87
2022/04/13 04:54:10;;;;;;;;;;;;;;;;;;5054324;28;20364;-87
2022/04/13 04:56:35;;;;;;;;;;;;;;;;;;5064670;28;19913;-87
2022/04/13 04:59:00;;;;;;;;;;;;;;;;;;5074178;28;19958;-87
2022/04/13 05:01:25;;;;;;;;;;;;;;;;;;5074173;28;19940;-87
2022/04/13 05:03:51;;;;;;;;;;;;;;;;;;5074308;28;19956;-86
2022/04/13 05:06:16;;;;;;;;;;;;;;;;;;5074127;28;19913;-87
2022/04/13 05:08:41;;;;;;;;;;;;;;;;;;5075273;28;19912;-87
2022/04/13 05:11:06;;;;;;;;;;;;;;;;;;5075222;28;20561;-87
2022/04/13 05:13:31;;;;;;;;;;;;;;;;;;5064715;28;19916;-87
2022/04/13 05:15:56;;;;;;;;;;;;;;;;;;5054225;28;19916;-87
2022/04/13 05:18:21;;;;;;;;;;;;;;;;;;5068420;28;20295;-87
2022/04/13 05:20:46;;;;;;;;;;;;;;;;;;5073863;28;20249;-86
2022/04/13 05:23:11;;;;;;;;;;;;;;;;;;5073875;28;19908;-87
2022/04/13 05:25:37;;;;;;;;;;;;;;;;;;5073946;28;19908;-87
2022/04/13 05:28:02;;;;;;;;;;;;;;;;;;5073879;28;19909;-86
2022/04/13 05:30:27;;;;;;;;;;;;;;;;;;5073754;28;20473;-87
2022/04/13 05:32:57;;;;;;;;;;;;;;;;;;5069407;28;19960;-86
2022/04/13 05:35:23;;;;;;;;;;;;;;;;;;5053655;28;19913;-87
2022/04/13 05:37:48;;;;;;;;;;;;;;;;;;5053619;28;19913;-87
2022/04/13 05:40:13;;;;;;;;;;;;;;;;;;5059579;28;20344;-86
2022/04/13 05:42:39;;;;;;;;;;;;;;;;;;5073444;28;19962;-87
2022/04/13 05:45:04;;;;;;;;;;;;;;;;;;5074806;28;19916;-87
2022/04/13 05:47:29;;;;;;;;;;;;;;;;;;5069335;28;19920;-86
2022/04/13 05:49:54;;;;;;;;;;;;;;;;;;5053486;28;19912;-87
2022/04/13 05:52:19;;;;;;;;;;;;;;;;;;5053160;28;19927;-87
2022/04/13 05:54:44;;;;;;;;;;;;;;;;;;5054372;28;19915;-87
2022/04/13 05:57:09;;;;;;;;;;;;;;;;;;5054603;28;19919;-87
2022/04/13 05:59:34;;;;;;;;;;;;;;;;;;5054367;28;19919;-87
2022/04/13 06:01:59;;;;;;;;;;;;;;;;;;5053231;28;21065;-87
2022/04/13 06:04:25;;;;;;;;;;;;;;;;;;5053075;28;19913;-87
2022/04/13 06:06:51;;;;;;;;;;;;;;;;;;5053158;28;19905;-86
2022/04/13 06:09:16;;;;;;;;;;;;;;;;;;5053064;28;19908;-87
2022/04/13 06:11:41;;;;;;;;;;;;;;;;;;5053015;28;19912;-86
2022/04/13 06:14:06;;;;;;;;;;;;;;;;;;5052294;28;20265;-88
2022/04/13 06:16:31;;;;;;;;;;;;;;;;;;5071052;28;19912;-89
2022/04/13 06:18:56;;;;;;;;;;;;;;;;;;5072807;28;19948;-89
2022/04/13 06:21:22;;;;;;;;;;;;;;;;;;5072823;28;20038;-88
2022/04/13 06:23:47;;;;;;;;;;;;;;;;;;5071894;28;19919;-89
2022/04/13 06:26:12;;;;;;;;;;;;;;;;;;5063717;28;20302;-89
2022/04/13 06:28:37;;;;;;;;;;;;;;;;;;5072190;28;19917;-88
2022/04/13 06:31:02;;;;;;;;;;;;;;;;;;5072264;28;19917;-89
2022/04/13 06:33:27;;;;;;;;;;;;;;;;;;5071613;28;19916;-89
2022/04/13 06:35:52;;;;;;;;;;;;;;;;;;5071649;28;19957;-89
2022/04/13 06:38:17;;;;;;;;;;;;;;;;;;5070170;28;19917;-88
2022/04/13 06:40:43;;;;;;;;;;;;;;;;;;5089063;28;20353;-88
2022/04/13 06:43:08;;;;;;;;;;;;;;;;;;5059085;28;19913;-88
2022/04/13 06:45:33;;;;;;;;;;;;;;;;;;5063411;28;19913;-88
2022/04/13 06:47:58;;;;;;;;;;;;;;;;;;5071872;28;19920;-88
2022/04/13 06:50:23;;;;;;;;;;;;;;;;;;5073050;28;20009;-88
2022/04/13 06:52:48;;;;;;;;;;;;;;;;;;5071869;28;19912;-89
2022/04/13 06:55:13;;;;;;;;;;;;;;;;;;5066317;28;19912;-88
2022/04/13 06:57:38;;;;;;;;;;;;;;;;;;5064448;28;19974;-88
2022/04/13 07:00:04;;;;;;;;;;;;;;;;;;5071686;28;19912;-88
2022/04/13 07:02:29;;;;;;;;;;;;;;;;;;5072171;28;19912;-88
2022/04/13 07:04:54;;;;;;;;;;;;;;;;;;5072256;28;19915;-89
2022/04/13 07:07:19;;;;;;;;;;;;;;;;;;5073321;28;19999;-89
2022/04/13 07:09:44;;;;;;;;;;;;;;;;;;5071085;28;19909;-89
2022/04/13 07:12:09;;;;;;;;;;;;;;;;;;5055113;28;19969;-87
2022/04/13 07:14:34;;;;;;;;;;;;;;;;;;5059316;28;19912;-88
2022/04/13 07:16:59;;;;;;;;;;;;;;;;;;5070631;28;19987;-88
2022/04/13 07:19:25;;;;;;;;;;;;;;;;;;5071932;28;19944;-88
2022/04/13 07:21:50;;;;;;;;;;;;;;;;;;5067479;28;19953;-88
2022/04/13 07:24:15;;;;;;;;;;;;;;;;;;5068108;28;20371;-87
2022/04/13 07:26:40;;;;;;;;;;;;;;;;;;5070274;28;19920;-88
2022/04/13 07:29:05;;;;;;;;;;;;;;;;;;5071349;28;19912;-89
2022/04/13 07:31:30;;;;;;;;;;;;;;;;;;5069907;28;19919;-88
2022/04/13 07:33:56;;;;;;;;;;;;;;;;;;5070922;28;19916;-88
2022/04/13 07:36:21;;;;;;;;;;;;;;;;;;5071380;28;19912;-88
2022/04/13 07:38:46;;;;;;;;;;;;;;;;;;5070056;28;20349;-88
2022/04/13 07:41:12;;;;;;;;;;;;;;;;;;5069910;28;20007;-88
2022/04/13 07:43:40;;;;;;;;;;;;;;;;;;5067742;28;19913;-87
2022/04/13 07:46:08;;;;;;;;;;;;;;;;;;5074262;28;20420;-88
2022/04/13 07:48:34;;;;;;;;;;;;;;;;;;5061375;28;19934;-88
2022/04/13 07:50:59;;;;;;;;;;;;;;;;;;5085970;28;20403;-88
2022/04/13 07:53:24;;;;;;;;;;;;;;;;;;5066194;28;19917;-89
2022/04/13 07:55:49;;;;;;;;;;;;;;;;;;5069167;28;19916;-88
2022/04/13 07:58:16;;;;;;;;;;;;;;;;;;5085776;28;19916;-88
2022/04/13 08:00:41;;;;;;;;;;;;;;;;;;5093833;28;20368;-88
2022/04/13 08:03:06;;;;;;;;;;;;;;;;;;5066272;28;20349;-88
2022/04/13 08:05:32;;;;;;;;;;;;;;;;;;5069248;28;19920;-88
2022/04/13 08:07:57;;;;;;;;;;;;;;;;;;5083133;28;19961;-88
2022/04/13 08:10:22;;;;;;;;;;;;;;;;;;5088942;28;19919;-88
2022/04/13 08:12:47;;;;;;;;;;;;;;;;;;5067838;28;19974;-88
2022/04/13 08:15:12;;;;;;;;;;;;;;;;;;5066718;28;19966;-87
2022/04/13 08:17:40;;;;;;;;;;;;;;;;;;5071546;28;19966;-89
2022/04/13 08:20:06;;;;;;;;;;;;;;;;;;5061438;28;19916;-88
2022/04/13 08:22:32;;;;;;;;;;;;;;;;;;5060608;28;20383;-87
2022/04/13 08:24:57;;;;;;;;;;;;;;;;;;5071346;28;20461;-89
2022/04/13 08:27:22;;;;;;;;;;;;;;;;;;5066638;28;19913;-87
2022/04/13 08:29:47;;;;;;;;;;;;;;;;;;5071809;28;19912;-88
2022/04/13 08:32:12;;;;;;;;;;;;;;;;;;5069974;28;19909;-88
2022/04/13 08:34:37;;;;;;;;;;;;;;;;;;5074967;28;19932;-88
2022/04/13 08:37:02;;;;;;;;;;;;;;;;;;5070613;28;20304;-88
2022/04/13 08:39:27;;;;;;;;;;;;;;;;;;5068737;28;20261;-88
2022/04/13 08:41:53;;;;;;;;;;;;;;;;;;5073935;28;20428;-88
2022/04/13 08:44:18;;;;;;;;;;;;;;;;;;5075894;28;20015;-88
2022/04/13 08:46:43;;;;;;;;;;;;;;;;;;5068037;28;19966;-88
2022/04/13 08:49:08;;;;;;;;;;;;;;;;;;5070621;28;19936;-88
2022/04/13 08:51:33;;;;;;;;;;;;;;;;;;5067488;28;20323;-87
2022/04/13 08:53:58;;;;;;;;;;;;;;;;;;5054308;28;19913;-88
2022/04/13 08:56:23;;;;;;;;;;;;;;;;;;5067915;28;19912;-88
2022/04/13 08:58:49;;;;;;;;;;;;;;;;;;5073644;28;19912;-88
2022/04/13 09:01:15;;;;;;;;;;;;;;;;;;5072321;28;20379;-88
2022/04/13 09:03:40;;;;;;;;;;;;;;;;;;5062090;28;19913;-88
2022/04/13 09:06:06;;;;;;;;;;;;;;;;;;5073654;28;20501;-88
2022/04/13 09:08:31;;;;;;;;;;;;;;;;;;5073366;28;19951;-88
2022/04/13 09:10:56;;;;;;;;;;;;;;;;;;5074410;28;19916;-88
2022/04/13 09:13:21;;;;;;;;;;;;;;;;;;5070280;28;19924;-90
2022/04/13 09:15:46;;;;;;;;;;;;;;;;;;5072080;28;19916;-90
2022/04/13 09:18:12;;;;;;;;;;;;;;;;;;5072271;28;19913;-89
2022/04/13 09:20:37;;;;;;;;;;;;;;;;;;5074513;28;19917;-88
2022/04/13 09:23:02;;;;;;;;;;;;;;;;;;5064742;28;19913;-90
2022/04/13 09:25:27;;;;;;;;;;;;;;;;;;5087842;28;20279;-89
2022/04/13 09:27:52;;;;;;;;;;;;;;;;;;5059216;28;19920;-90
2022/04/13 09:30:17;;;;;;;;;;;;;;;;;;5066031;28;19924;-90
2022/04/13 09:32:42;;;;;;;;;;;;;;;;;;5066543;28;20264;-88
2022/04/13 09:35:08;;;;;;;;;;;;;;;;;;5067752;28;19966;-89
2022/04/13 09:37:33;;;;;;;;;;;;;;;;;;5062849;28;19928;-88
2022/04/13 09:39:58;;;;;;;;;;;;;;;;;;5074215;28;19909;-89
2022/04/13 09:42:23;;;;;;;;;;;;;;;;;;5069809;28;20011;-89
2022/04/13 09:44:49;;;;;;;;;;;;;;;;;;5071626;28;19934;-88
2022/04/13 09:47:14;;;;;;;;;;;;;;;;;;5075237;28;19922;-89
2022/04/13 09:49:39;;;;;;;;;;;;;;;;;;5068778;28;19919;-89
2022/04/13 09:52:04;;;;;;;;;;;;;;;;;;5071619;28;19913;-88
2022/04/13 09:54:29;;;;;;;;;;;;;;;;;;5067275;28;20376;-87
2022/04/13 09:56:54;;;;;;;;;;;;;;;;;;5066969;28;19922;-88
2022/04/13 09:59:20;;;;;;;;;;;;;;;;;;5072188;28;20403;-89
2022/04/13 10:01:45;;;;;;;;;;;;;;;;;;5071843;28;19913;-89
2022/04/13 10:04:12;;;;;;;;;;;;;;;;;;5066210;28;20280;-89
2022/04/13 10:06:37;;;;;;;;;;;;;;;;;;5063673;28;19923;-89
2022/04/13 10:09:02;;;;;;;;;;;;;;;;;;5061448;28;19951;-84
2022/04/13 10:11:27;;;;;;;;;;;;;;;;;;5069125;28;19920;-88
2022/04/13 10:13:52;;;;;;;;;;;;;;;;;;5065903;28;19928;-87
2022/04/13 10:16:17;;;;;;;;;;;;;;;;;;5067439;28;19917;-88
2022/04/13 10:18:42;;;;;;;;;;;;;;;;;;5068090;28;19912;-88
2022/04/13 10:21:07;;;;;;;;;;;;;;;;;;5067122;28;19917;-88
2022/04/13 10:23:32;;;;;;;;;;;;;;;;;;5065998;28;19909;-88
2022/04/13 10:25:58;;;;;;;;;;;;;;;;;;5071807;28;19908;-88
2022/04/13 10:28:24;;;;;;;;;;;;;;;;;;5061893;28;19913;-88
2022/04/13 10:30:49;;;;;;;;;;;;;;;;;;5055946;28;19955;-88
2022/04/13 10:33:14;;;;;;;;;;;;;;;;;;5067061;28;20631;-87
2022/04/13 10:35:39;;;;;;;;;;;;;;;;;;5064758;28;19970;-88
2022/04/13 10:38:04;;;;;;;;;;;;;;;;;;5063374;28;20288;-88
2022/04/13 10:40:29;;;;;;;;;;;;;;;;;;5067051;28;20715;-88
2022/04/13 10:42:55;;;;;;;;;;;;;;;;;;5062052;28;19920;-88
2022/04/13 10:45:20;;;;;;;;;;;;;;;;;;5060577;28;19908;-89
2022/04/13 10:47:45;;;;;;;;;;;;;;;;;;5073595;28;19917;-83
2022/04/13 10:50:10;;;;;;;;;;;;;;;;;;5064472;28;20339;-87
2022/04/13 10:52:35;;;;;;;;;;;;;;;;;;5063641;28;20375;-88
2022/04/13 10:55:00;;;;;;;;;;;;;;;;;;5067902;28;20288;-88
2022/04/13 10:57:25;;;;;;;;;;;;;;;;;;5061670;28;19928;-87
2022/04/13 10:59:51;;;;;;;;;;;;;;;;;;5060575;28;20477;-88
2022/04/13 11:02:16;;;;;;;;;;;;;;;;;;5059941;28;19920;-88
2022/04/13 11:04:41;;;;;;;;;;;;;;;;;;5081411;28;19909;-89
2022/04/13 11:07:06;;;;;;;;;;;;;;;;;;5072324;28;19923;-89
2022/04/13 11:09:31;;;;;;;;;;;;;;;;;;5072054;28;20368;-89
2022/04/13 11:11:56;;;;;;;;;;;;;;;;;;5071809;28;19959;-89
2022/04/13 11:14:21;;;;;;;;;;;;;;;;;;5057558;28;19994;-89
2022/04/13 11:16:46;;;;;;;;;;;;;;;;;;5069650;28;19912;-88
2022/04/13 11:19:11;;;;;;;;;;;;;;;;;;5062606;28;19908;-88
2022/04/13 11:21:37;;;;;;;;;;;;;;;;;;5057705;28;19938;-88
2022/04/13 11:24:02;;;;;;;;;;;;;;;;;;5066984;28;19912;-88
2022/04/13 11:26:27;;;;;;;;;;;;;;;;;;5068899;28;19923;-88
2022/04/13 11:28:52;;;;;;;;;;;;;;;;;;5064331;28;19913;-89
2022/04/13 11:31:17;;;;;;;;;;;;;;;;;;5069607;28;19913;-88
2022/04/13 11:33:42;;;;;;;;;;;;;;;;;;5069670;28;19917;-89
2022/04/13 11:36:07;;;;;;;;;;;;;;;;;;5075308;28;19958;-88
2022/04/13 11:38:36;;;;;;;;;;;;;;;;;;5076891;28;19913;-89
2022/04/13 11:41:01;;;;;;;;;;;;;;;;;;5071538;28;19917;-89
2022/04/13 11:43:26;;;;;;;;;;;;;;;;;;5068225;28;19935;-87
2022/04/13 11:45:51;;;;;;;;;;;;;;;;;;5073922;28;20291;-87
2022/04/13 11:48:16;;;;;;;;;;;;;;;;;;5069318;28;20356;-87
2022/04/13 11:50:41;;;;;;;;;;;;;;;;;;5067821;28;19920;-87
2022/04/13 11:53:06;;;;;;;;;;;;;;;;;;5076490;28;20003;-87
2022/04/13 11:55:32;;;;;;;;;;;;;;;;;;5076493;28;20404;-88
2022/04/13 11:57:57;;;;;;;;;;;;;;;;;;5076462;28;19915;-88
2022/04/13 12:00:22;;;;;;;;;;;;;;;;;;5075524;28;19916;-88
2022/04/13 12:02:47;;;;;;;;;;;;;;;;;;5075037;28;20265;-88
2022/04/13 12:05:12;;;;;;;;;;;;;;;;;;5076940;28;20302;-88
2022/04/13 12:07:40;;;;;;;;;;;;;;;;;;5065590;28;20364;-87
2022/04/13 12:10:05;;;;;;;;;;;;;;;;;;5055656;28;20269;-88
2022/04/13 12:12:31;;;;;;;;;;;;;;;;;;5055232;28;20417;-88
2022/04/13 12:14:56;;;;;;;;;;;;;;;;;;5056368;28;19909;-88
2022/04/13 12:17:21;;;;;;;;;;;;;;;;;;5056448;28;19909;-88
2022/04/13 12:19:46;;;;;;;;;;;;;;;;;;5055170;28;19997;-87
2022/04/13 12:22:11;;;;;;;;;;;;;;;;;;5055347;28;19951;-87
2022/04/13 12:24:36;;;;;;;;;;;;;;;;;;5055632;28;20353;-88
2022/04/13 12:27:01;;;;;;;;;;;;;;;;;;5055140;28;19915;-88
2022/04/13 12:29:26;;;;;;;;;;;;;;;;;;5056167;28;19909;-88
2022/04/13 12:31:52;;;;;;;;;;;;;;;;;;5056202;28;19909;-88
2022/04/13 12:34:17;;;;;;;;;;;;;;;;;;5054780;28;19927;-88
2022/04/13 12:36:42;;;;;;;;;;;;;;;;;;5054880;28;19970;-88
2022/04/13 12:39:07;;;;;;;;;;;;;;;;;;5057065;28;20586;-88
2022/04/13 12:41:33;;;;;;;;;;;;;;;;;;5074807;28;19964;-88
2022/04/13 12:43:59;;;;;;;;;;;;;;;;;;5073930;28;20391;-87
2022/04/13 12:46:24;;;;;;;;;;;;;;;;;;5075736;28;19955;-88
2022/04/13 12:48:50;;;;;;;;;;;;;;;;;;5074653;28;19912;-88
2022/04/13 12:51:15;;;;;;;;;;;;;;;;;;5074552;28;19909;-88
2022/04/13 12:53:40;;;;;;;;;;;;;;;;;;5074697;28;19912;-88
2022/04/13 12:56:05;;;;;;;;;;;;;;;;;;5073717;28;19912;-88
2022/04/13 12:58:30;;;;;;;;;;;;;;;;;;5074534;28;20007;-87
2022/04/13 13:00:55;;;;;;;;;;;;;;;;;;5075833;28;20007;-87
2022/04/13 13:03:21;;;;;;;;;;;;;;;;;;5075839;28;20007;-87
2022/04/13 13:05:46;;;;;;;;;;;;;;;;;;5074429;28;20376;-87
2022/04/13 13:08:11;;;;;;;;;;;;;;;;;;5074313;28;19908;-88
2022/04/13 13:10:36;;;;;;;;;;;;;;;;;;5074199;28;20260;-87
2022/04/13 13:13:01;;;;;;;;;;;;;;;;;;5074119;28;20421;-88
2022/04/13 13:15:26;;;;;;;;;;;;;;;;;;5054207;28;20360;-88
2022/04/13 13:17:51;;;;;;;;;;;;;;;;;;5054209;28;19955;-88
2022/04/13 13:20:16;;;;;;;;;;;;;;;;;;5053933;28;19909;-87
2022/04/13 13:22:42;;;;;;;;;;;;;;;;;;5054112;28;20336;-88
2022/04/13 13:25:08;;;;;;;;;;;;;;;;;;5054032;28;20296;-88
2022/04/13 13:27:33;;;;;;;;;;;;;;;;;;5054017;28;19909;-88
2022/04/13 13:29:59;;;;;;;;;;;;;;;;;;5057193;28;19909;-87
2022/04/13 13:32:24;;;;;;;;;;;;;;;;;;5055087;28;19912;-87
2022/04/13 13:34:49;;;;;;;;;;;;;;;;;;5053838;28;20245;-88
2022/04/13 13:37:14;;;;;;;;;;;;;;;;;;5053916;28;20005;-88
2022/04/13 13:39:39;;;;;;;;;;;;;;;;;;5053832;28;19912;-87
2022/04/13 13:42:04;;;;;;;;;;;;;;;;;;5053739;28;19909;-88
2022/04/13 13:44:30;;;;;;;;;;;;;;;;;;5053382;28;20019;-88
2022/04/13 13:46:55;;;;;;;;;;;;;;;;;;5056413;28;19924;-87
2022/04/13 13:49:20;;;;;;;;;;;;;;;;;;5073507;28;19908;-87
2022/04/13 13:51:48;;;;;;;;;;;;;;;;;;5073480;28;19915;-87
2022/04/13 13:54:13;;;;;;;;;;;;;;;;;;5073716;28;19912;-87
2022/04/13 13:56:38;;;;;;;;;;;;;;;;;;5072456;28;19912;-88
2022/04/13 13:59:03;;;;;;;;;;;;;;;;;;5058106;28;19913;-87
2022/04/13 14:01:28;;;;;;;;;;;;;;;;;;5053161;28;20322;-87
2022/04/13 14:03:53;;;;;;;;;;;;;;;;;;5053216;28;20505;-87
2022/04/13 14:06:18;;;;;;;;;;;;;;;;;;5053345;28;19944;-88
2022/04/13 14:08:44;;;;;;;;;;;;;;;;;;5053164;28;19913;-88
2022/04/13 14:11:09;;;;;;;;;;;;;;;;;;5053017;28;20289;-88
2022/04/13 14:13:34;;;;;;;;;;;;;;;;;;5054391;28;19917;-87
2022/04/13 14:15:59;;;;;;;;;;;;;;;;;;5068089;28;19912;-87
2022/04/13 14:18:24;;;;;;;;;;;;;;;;;;5072939;28;20408;-88
2022/04/13 14:20:50;;;;;;;;;;;;;;;;;;5074134;28;20256;-88
2022/04/13 14:23:15;;;;;;;;;;;;;;;;;;5072872;28;19916;-88
2022/04/13 14:25:40;;;;;;;;;;;;;;;;;;5073042;28;19915;-88
2022/04/13 14:28:05;;;;;;;;;;;;;;;;;;5072958;28;20341;-88
2022/04/13 14:30:30;;;;;;;;;;;;;;;;;;5068593;28;20487;-88
2022/04/13 14:32:55;;;;;;;;;;;;;;;;;;5052633;28;19916;-88
2022/04/13 14:35:21;;;;;;;;;;;;;;;;;;5052647;28;19956;-88
2022/04/13 14:37:47;;;;;;;;;;;;;;;;;;5052629;28;19916;-87
2022/04/13 14:40:13;;;;;;;;;;;;;;;;;;5053932;28;19995;-88
2022/04/13 14:42:38;;;;;;;;;;;;;;;;;;5052579;28;19993;-88
2022/04/13 14:45:03;;;;;;;;;;;;;;;;;;5052508;28;20388;-88
2022/04/13 14:47:29;;;;;;;;;;;;;;;;;;5053002;28;19960;-87
2022/04/13 14:49:54;;;;;;;;;;;;;;;;;;5052469;28;19908;-88
2022/04/13 14:52:19;;;;;;;;;;;;;;;;;;5052555;28;20283;-88
2022/04/13 14:54:44;;;;;;;;;;;;;;;;;;5052382;28;20348;-88
2022/04/13 14:57:10;;;;;;;;;;;;;;;;;;5072453;28;20420;-88
2022/04/13 14:59:35;;;;;;;;;;;;;;;;;;5072486;28;20394;-88
2022/04/13 15:02:02;;;;;;;;;;;;;;;;;;5069764;28;19912;-88
2022/04/13 15:04:27;;;;;;;;;;;;;;;;;;5052365;28;19916;-88
2022/04/13 15:06:52;;;;;;;;;;;;;;;;;;5051948;28;20262;-88
2022/04/13 15:09:17;;;;;;;;;;;;;;;;;;5052441;28;19915;-88
2022/04/13 15:11:42;;;;;;;;;;;;;;;;;;5052312;28;19916;-88
2022/04/13 15:14:07;;;;;;;;;;;;;;;;;;5053623;28;19912;-88
2022/04/13 15:16:34;;;;;;;;;;;;;;;;;;5053548;28;20272;-88
2022/04/13 15:18:59;;;;;;;;;;;;;;;;;;5053582;28;19913;-88
2022/04/13 15:21:24;;;;;;;;;;;;;;;;;;5073594;28;20326;-87
2022/04/13 15:23:50;;;;;;;;;;;;;;;;;;5072364;28;19909;-88
2022/04/13 15:26:17;;;;;;;;;;;;;;;;;;5072135;28;19915;-88
2022/04/13 15:28:42;;;;;;;;;;;;;;;;;;5073931;28;19939;-88
2022/04/13 15:31:07;;;;;;;;;;;;;;;;;;5072218;28;19912;-88
2022/04/13 15:33:32;;;;;;;;;;;;;;;;;;5072045;28;20338;-88
2022/04/13 15:35:57;;;;;;;;;;;;;;;;;;5073391;28;19915;-88
2022/04/13 15:38:22;;;;;;;;;;;;;;;;;;5068504;28;19979;-88
2022/04/13 15:40:49;;;;;;;;;;;;;;;;;;5052022;28;20280;-88
2022/04/13 15:43:14;;;;;;;;;;;;;;;;;;5052076;28;19908;-88
2022/04/13 15:45:39;;;;;;;;;;;;;;;;;;5053102;28;20019;-87
2022/04/13 15:48:04;;;;;;;;;;;;;;;;;;5051968;28;19995;-88
2022/04/13 15:50:30;;;;;;;;;;;;;;;;;;5052032;28;19995;-88
2022/04/13 15:52:55;;;;;;;;;;;;;;;;;;5051791;28;19913;-88
2022/04/13 15:55:23;;;;;;;;;;;;;;;;;;5069219;28;19923;-88
2022/04/13 15:57:50;;;;;;;;;;;;;;;;;;5071926;28;19913;-88
2022/04/13 16:00:15;;;;;;;;;;;;;;;;;;5071825;28;19957;-88
2022/04/13 16:02:44;;;;;;;;;;;;;;;;;;5071940;28;19908;-88
2022/04/13 16:05:09;;;;;;;;;;;;;;;;;;5071868;28;19962;-88
2022/04/13 16:07:34;;;;;;;;;;;;;;;;;;5071912;28;19913;-88
2022/04/13 16:09:59;;;;;;;;;;;;;;;;;;5072932;28;20264;-88
2022/04/13 16:12:24;;;;;;;;;;;;;;;;;;5056181;28;19913;-88
2022/04/13 16:14:49;;;;;;;;;;;;;;;;;;5051641;28;20015;-88
2022/04/13 16:17:15;;;;;;;;;;;;;;;;;;5052932;28;20050;-88
2022/04/13 16:19:40;;;;;;;;;;;;;;;;;;5054633;28;20467;-88
2022/04/13 16:22:05;;;;;;;;;;;;;;;;;;5055100;28;19999;-88
2022/04/13 16:24:30;;;;;;;;;;;;;;;;;;5056925;28;19920;-88
2022/04/13 16:26:55;;;;;;;;;;;;;;;;;;5055056;28;19958;-88
2022/04/13 16:29:20;;;;;;;;;;;;;;;;;;5069994;28;19935;-88
2022/04/13 16:31:45;;;;;;;;;;;;;;;;;;5071443;28;19908;-88